Overview Statistics Trail Chart Weather Telemetry Raw packets
 

This is the latest recevied weather packets stored in our database for station/object MB7UKB-10. If no packets are shown the sender has not sent any weather packets the latest 10 day(s).

<< 10 11 12 13 14 15 16 >>
Time Temp. Humidity Pressure Rain* Wind** Luminosity Snow
1788138927 15.56° C 88% 1004.9 hPa 0 mm - - -
1788137127 16.11° C 88% 1004.6 hPa 0 mm - - -
1788135327 15.56° C 89% 1004.8 hPa 0 mm - - -
1788133527 15.56° C 89% 1005.2 hPa 0 mm - - -
1788131728 15.56° C 88% 1005.3 hPa 0 mm - - -
1788129925 15.56° C 90% 1005.5 hPa 0 mm - - -
1788128126 15.56° C 90% 1006 hPa 0 mm - - -
1788126328 15.56° C 90% 1006.3 hPa 0 mm - - -
1788124526 15.56° C 90% 1006.4 hPa 0.51 mm - - -
1788122725 16.11° C 88% 1006 hPa 1.52 mm - - -
1788120926 17.22° C 83% 1005.9 hPa 1.02 mm - - -
1788119128 18.33° C 74% 1006 hPa 0 mm - - -
1788117326 18.33° C 73% 1006.6 hPa 0 mm - - -
1788115526 18.89° C 70% 1006.8 hPa 0 mm - - -
1788113726 18.89° C 69% 1006.7 hPa 0 mm - - -
1788111928 19.44° C 66% 1006.9 hPa 0 mm - - -
1788110125 20° C 63% 1007.1 hPa 0 mm - - -
1788108326 20° C 64% 1007.4 hPa 0 mm - - -
1788106526 20.56° C 62% 1007.3 hPa 0 mm - - -
1788104726 21.67° C 61% 1007.7 hPa 0 mm - - -
1788102926 20.56° C 66% 1007.9 hPa 0 mm - - -
1788099326 22.22° C 56% 1008 hPa 0 mm - - -
1788097526 23.33° C 50% 1007.8 hPa 0 mm - - -
1788095726 23.33° C 53% 1008.2 hPa 0 mm - - -
1788093926 21.67° C 61% 1008.7 hPa 0 mm - - -

* Rain latest hour (hover to see other rain measurements)
** Current wind speed in m/s (hover to see current wind gust speed)